createdAt,value
2018-02-15T00:32:06.619Z,99.90
2018-02-15T00:34:36.533Z,99.90
2018-02-15T00:37:05.043Z,99.90
2018-02-15T00:39:33.433Z,99.90
2018-02-15T00:42:01.798Z,99.90
2018-02-15T00:44:36.398Z,99.90
2018-02-15T00:47:06.827Z,99.90
2018-02-15T00:49:35.302Z,99.90
2018-02-15T00:52:03.681Z,99.90
2018-02-15T00:54:32.073Z,99.90
2018-02-15T00:57:00.541Z,99.90
2018-02-15T00:59:28.931Z,99.90
2018-02-15T01:01:57.200Z,99.90
2018-02-15T01:04:25.674Z,99.90
2018-02-15T01:06:54.065Z,99.90
2018-02-15T01:09:23.045Z,99.90
2018-02-15T01:11:51.535Z,99.90
2018-02-15T01:14:19.937Z,99.90
2018-02-15T01:16:48.207Z,99.90
2018-02-15T01:19:16.661Z,99.90
2018-02-15T01:21:45.154Z,99.90
2018-02-15T01:24:21.205Z,99.90
2018-02-15T01:26:49.580Z,99.90
2018-02-15T01:29:18.063Z,99.90
2018-02-15T01:31:46.438Z,99.90
2018-02-15T01:34:14.919Z,99.90
2018-02-15T01:36:44.019Z,99.90
2018-02-15T01:39:12.307Z,99.90
2018-02-15T01:41:46.814Z,99.90
2018-02-15T01:44:15.300Z,99.90
2018-02-15T01:46:43.625Z,99.90
2018-02-15T01:49:12.077Z,99.90
2018-02-15T01:51:40.376Z,99.90
2018-02-15T01:54:10.250Z,99.90
2018-02-15T01:56:45.893Z,99.90
2018-02-15T01:59:15.444Z,99.90
2018-02-15T02:01:43.733Z,99.90
2018-02-15T02:04:12.051Z,99.90
2018-02-15T02:06:40.697Z,99.90
2018-02-15T02:09:10.445Z,99.90
2018-02-15T02:11:38.924Z,99.90
2018-02-15T02:14:07.234Z,99.90
2018-02-15T02:16:35.613Z,99.90
2018-02-15T02:19:04.755Z,99.90
2018-02-15T02:21:33.841Z,99.90
2018-02-15T02:24:03.084Z,99.90
2018-02-15T02:26:31.559Z,99.90
2018-02-15T02:29:00.036Z,99.90
2018-02-15T02:31:28.335Z,99.90
2018-02-15T02:33:56.705Z,99.90
2018-02-15T02:36:25.887Z,99.90
2018-02-15T02:38:54.372Z,99.90
2018-02-15T02:41:22.844Z,99.90
2018-02-15T02:43:51.242Z,99.90
2018-02-15T02:46:20.172Z,99.90
2018-02-15T02:48:49.316Z,99.90
2018-02-15T02:51:17.621Z,99.90
2018-02-15T02:53:45.894Z,99.90
2018-02-15T02:56:14.347Z,99.90
2018-02-15T02:58:42.831Z,99.90
2018-02-15T03:01:11.306Z,99.90
2018-02-15T03:03:39.634Z,99.90
2018-02-15T03:06:09.731Z,99.90
2018-02-15T03:08:46.850Z,99.90
2018-02-15T03:11:15.906Z,99.90
2018-02-15T03:13:54.012Z,99.90
2018-02-15T03:16:22.986Z,99.90
2018-02-15T03:18:57.973Z,99.90
2018-02-15T03:21:26.804Z,99.90
2018-02-15T03:24:07.604Z,99.90
2018-02-15T03:26:37.362Z,99.90
2018-02-15T03:29:06.435Z,99.90
2018-02-15T03:31:36.703Z,99.90
2018-02-15T03:34:05.110Z,99.90
2018-02-15T03:36:33.559Z,99.90
2018-02-15T03:39:01.869Z,99.90
2018-02-15T03:41:30.243Z,99.90
2018-02-15T03:43:58.620Z,99.90
2018-02-15T03:46:26.995Z,99.90
2018-02-15T03:48:55.447Z,99.90
2018-02-15T03:51:31.514Z,99.90
2018-02-15T03:53:59.993Z,99.90
2018-02-15T03:56:28.467Z,99.90
2018-02-15T03:58:56.948Z,99.90
2018-02-15T04:01:25.226Z,99.90
2018-02-15T04:04:07.062Z,99.90
2018-02-15T04:06:36.143Z,99.90
2018-02-15T04:09:04.797Z,99.90
2018-02-15T04:11:33.178Z,99.90
2018-02-15T04:14:01.977Z,99.90
2018-02-15T04:16:31.468Z,99.90
2018-02-15T04:19:03.134Z,99.90
2018-02-15T04:21:32.644Z,99.90
2018-02-15T04:24:01.637Z,99.90
2018-02-15T04:26:43.618Z,99.90
2018-02-15T04:29:24.789Z,99.90
2018-02-15T04:31:53.180Z,99.90
2018-02-15T04:34:34.685Z,99.90
2018-02-15T04:37:02.980Z,99.90
2018-02-15T04:39:31.333Z,99.90
2018-02-15T04:41:59.643Z,99.90
2018-02-15T04:44:27.990Z,99.90
2018-02-15T04:47:12.007Z,99.90
2018-02-15T04:49:40.341Z,99.90
2018-02-15T04:52:10.326Z,99.90
2018-02-15T04:54:40.845Z,99.90
2018-02-15T04:57:09.296Z,99.90
2018-02-15T04:59:37.814Z,99.90
2018-02-15T05:02:06.186Z,99.90
2018-02-15T05:04:34.663Z,99.90
2018-02-15T05:07:03.037Z,99.90
2018-02-15T05:09:31.735Z,99.90
2018-02-15T05:12:00.249Z,99.90
2018-02-15T05:14:29.434Z,99.90
2018-02-15T05:16:57.988Z,99.90
2018-02-15T05:19:32.589Z,99.90
2018-02-15T05:22:01.728Z,99.90
2018-02-15T05:24:30.062Z,99.90
2018-02-15T05:26:58.450Z,99.90
2018-02-15T05:29:40.281Z,99.90
2018-02-15T05:32:12.555Z,99.90
2018-02-15T05:34:41.008Z,99.90
2018-02-15T05:37:09.391Z,99.90
2018-02-15T05:39:38.057Z,99.90
2018-02-15T05:42:06.458Z,99.90
2018-02-15T05:44:34.827Z,99.90
2018-02-15T05:47:03.351Z,99.90
2018-02-15T05:49:39.205Z,99.90
2018-02-15T05:52:08.897Z,99.90
2018-02-15T05:54:37.963Z,99.90
2018-02-15T05:57:06.270Z,99.90
2018-02-15T05:59:34.651Z,99.90
2018-02-15T06:02:03.125Z,99.90
2018-02-15T06:04:49.145Z,99.90
2018-02-15T06:07:19.140Z,99.90
2018-02-15T06:09:47.591Z,99.90
2018-02-15T06:12:15.994Z,99.90
2018-02-15T06:14:57.971Z,99.90
2018-02-15T06:17:26.313Z,99.90
2018-02-15T06:19:55.552Z,99.90
2018-02-15T06:22:23.947Z,99.90
2018-02-15T06:24:52.398Z,99.90
2018-02-15T06:27:20.879Z,99.90
2018-02-15T06:29:50.066Z,99.90
2018-02-15T06:32:19.176Z,99.90
2018-02-15T06:34:47.754Z,99.90
2018-02-15T06:37:16.089Z,99.90
2018-02-15T06:39:45.436Z,99.90
2018-02-15T06:42:13.725Z,99.90
2018-02-15T06:44:42.122Z,99.90
2018-02-15T06:47:10.441Z,99.90
2018-02-15T06:49:39.597Z,99.90
2018-02-15T06:52:25.793Z,99.90
2018-02-15T06:54:54.156Z,99.90
2018-02-15T06:57:22.561Z,99.90
2018-02-15T06:59:52.431Z,99.90
2018-02-15T07:02:21.028Z,99.90
2018-02-15T07:04:49.478Z,99.90
2018-02-15T07:07:17.974Z,99.90
2018-02-15T07:09:46.694Z,99.90
2018-02-15T07:12:15.139Z,99.90
2018-02-15T07:14:43.544Z,99.90
2018-02-15T07:17:12.028Z,99.90
2018-02-15T07:19:40.378Z,99.90
2018-02-15T07:22:08.857Z,99.90
2018-02-15T07:24:37.236Z,99.90
2018-02-15T07:27:05.723Z,99.90
2018-02-15T07:29:46.931Z,99.90
2018-02-15T07:32:15.477Z,99.90
2018-02-15T07:34:44.928Z,99.90
2018-02-15T07:37:13.473Z,99.90
2018-02-15T07:39:50.070Z,99.90
2018-02-15T07:42:19.336Z,99.90
2018-02-15T07:44:54.470Z,99.90
2018-02-15T07:47:23.060Z,99.90
2018-02-15T07:49:58.330Z,99.90
2018-02-15T07:52:26.770Z,98.80
2018-02-15T07:54:56.186Z,96.80
2018-02-15T07:57:31.722Z,95.10
2018-02-15T08:00:00.205Z,94.40
2018-02-15T08:02:35.784Z,90.50
2018-02-15T08:05:04.232Z,87.60
2018-02-15T08:07:32.719Z,82.60
2018-02-15T08:10:01.157Z,84.80
2018-02-15T08:12:34.590Z,81.70
2018-02-15T08:15:03.070Z,81.70
2018-02-15T08:17:34.838Z,78.90
2018-02-15T08:20:03.167Z,77.60
2018-02-15T08:22:32.261Z,79.90
2018-02-15T08:25:01.814Z,80.00
2018-02-15T08:27:30.479Z,80.30
2018-02-15T08:29:58.777Z,75.00
2018-02-15T08:32:30.723Z,70.00
2018-02-15T08:35:00.592Z,69.20
2018-02-15T08:37:30.059Z,69.20
2018-02-15T08:39:58.529Z,70.70
2018-02-15T08:42:27.249Z,67.00
2018-02-15T08:44:55.730Z,68.60
2018-02-15T08:47:24.187Z,71.70
2018-02-15T08:49:52.658Z,69.80
2018-02-15T08:52:21.063Z,69.00
2018-02-15T08:54:49.429Z,66.70
2018-02-15T08:57:17.779Z,64.80
2018-02-15T08:59:46.717Z,63.40
2018-02-15T09:02:15.024Z,58.20
2018-02-15T09:04:44.398Z,58.20
2018-02-15T09:07:20.079Z,58.00
2018-02-15T09:09:52.590Z,56.20
2018-02-15T09:12:21.136Z,56.20
2018-02-15T09:14:50.270Z,53.50
2018-02-15T09:17:18.674Z,53.30
2018-02-15T09:19:47.068Z,52.60
2018-02-15T09:22:15.510Z,52.10
2018-02-15T09:24:44.075Z,52.00
2018-02-15T09:27:12.576Z,52.20
2018-02-15T09:29:41.158Z,50.80
2018-02-15T09:32:09.855Z,49.70
2018-02-15T09:34:48.745Z,50.20
2018-02-15T09:37:17.877Z,49.30
2018-02-15T09:39:51.153Z,49.30
2018-02-15T09:42:19.664Z,49.80
2018-02-15T09:44:49.099Z,50.40
2018-02-15T09:47:25.042Z,50.40
2018-02-15T09:49:53.577Z,50.40
2018-02-15T09:52:25.957Z,49.60
2018-02-15T09:54:54.353Z,47.00
2018-02-15T09:57:22.811Z,46.00
2018-02-15T09:59:51.225Z,45.80
2018-02-15T10:02:19.768Z,44.90
2018-02-15T10:04:48.186Z,44.30
2018-02-15T10:07:16.736Z,42.90
2018-02-15T10:09:56.483Z,42.70
2018-02-15T10:12:24.957Z,42.20
2018-02-15T10:14:53.371Z,42.60
2018-02-15T10:17:27.839Z,43.30
2018-02-15T10:19:56.966Z,44.10
2018-02-15T10:22:25.437Z,44.40
2018-02-15T10:24:54.068Z,44.50
2018-02-15T10:27:24.038Z,45.50
2018-02-15T10:29:52.520Z,45.40
2018-02-15T10:32:21.099Z,45.70
2018-02-15T10:34:50.199Z,46.70
2018-02-15T10:37:18.674Z,47.20
2018-02-15T10:39:47.156Z,47.50
2018-02-15T10:42:17.377Z,47.70
2018-02-15T10:44:45.693Z,48.90
2018-02-15T10:47:14.052Z,48.30
2018-02-15T10:49:42.442Z,46.70
2018-02-15T10:52:10.788Z,45.60
2018-02-15T10:54:42.240Z,45.00
2018-02-15T10:57:10.591Z,45.30
2018-02-15T10:59:39.823Z,46.00
2018-02-15T11:02:13.888Z,45.90
2018-02-15T11:04:56.391Z,46.00
2018-02-15T11:07:25.691Z,45.90
2018-02-15T11:09:54.627Z,45.90
2018-02-15T11:12:22.941Z,46.40
2018-02-15T11:14:52.923Z,46.70
2018-02-15T11:17:21.435Z,46.60
2018-02-15T11:19:49.901Z,45.80
2018-02-15T11:22:18.274Z,45.90
2018-02-15T11:25:02.618Z,45.00
2018-02-15T11:27:31.098Z,45.50
2018-02-15T11:30:00.546Z,44.60
2018-02-15T11:32:29.090Z,44.70
2018-02-15T11:35:03.711Z,44.10
2018-02-15T11:37:32.187Z,43.30
2018-02-15T11:40:00.546Z,42.90
2018-02-15T11:42:29.053Z,42.60
2018-02-15T11:44:58.146Z,42.90
2018-02-15T11:47:26.627Z,43.20
2018-02-15T11:49:55.138Z,43.80
2018-02-15T11:52:34.192Z,42.50
2018-02-15T11:55:03.842Z,42.50
2018-02-15T11:57:32.323Z,41.00
2018-02-15T12:00:00.703Z,41.60
2018-02-15T12:02:29.037Z,42.30
2018-02-15T12:05:04.933Z,41.90
2018-02-15T12:07:33.443Z,41.70
2018-02-15T12:10:01.998Z,41.30
2018-02-15T12:12:30.481Z,40.70
2018-02-15T12:14:59.471Z,40.60
2018-02-15T12:17:28.105Z,40.30
2018-02-15T12:19:56.437Z,40.80
2018-02-15T12:22:24.813Z,41.20
2018-02-15T12:24:53.123Z,40.20
2018-02-15T12:27:21.569Z,38.90
2018-02-15T12:29:51.177Z,38.90
2018-02-15T12:32:28.472Z,37.80
2018-02-15T12:34:57.049Z,39.40
2018-02-15T12:37:26.097Z,38.60
2018-02-15T12:39:55.340Z,40.30
2018-02-15T12:42:23.824Z,40.30
2018-02-15T12:45:09.375Z,39.80
2018-02-15T12:47:38.805Z,43.50
2018-02-15T12:50:07.138Z,43.40
2018-02-15T12:52:35.459Z,41.60
2018-02-15T12:55:03.943Z,41.70
2018-02-15T12:57:32.422Z,40.20
2018-02-15T13:00:03.499Z,39.60
2018-02-15T13:02:35.539Z,40.00
2018-02-15T13:05:04.096Z,43.40
2018-02-15T13:07:32.487Z,42.10
2018-02-15T13:10:03.498Z,43.70
2018-02-15T13:12:44.725Z,43.70
2018-02-15T13:15:25.790Z,43.70
2018-02-15T13:17:54.454Z,42.40
2018-02-15T13:20:23.060Z,42.30
2018-02-15T13:22:52.189Z,43.20
2018-02-15T13:25:20.634Z,47.50
2018-02-15T13:28:07.240Z,47.20
2018-02-15T13:30:37.410Z,50.00
2018-02-15T13:33:06.810Z,51.10
2018-02-15T13:35:36.205Z,51.50
2018-02-15T13:38:19.283Z,51.50
2018-02-15T13:41:07.752Z,54.00
2018-02-15T13:43:36.137Z,56.50
2018-02-15T13:46:04.618Z,62.50
2018-02-15T13:48:52.552Z,68.20
2018-02-15T13:51:21.047Z,66.60
2018-02-15T13:53:49.595Z,63.60
2018-02-15T13:56:18.115Z,60.90
2018-02-15T13:58:46.732Z,58.70
2018-02-15T14:01:16.060Z,52.70
2018-02-15T14:03:51.486Z,52.10
2018-02-15T14:06:19.943Z,53.70
2018-02-15T14:08:49.114Z,53.30
2018-02-15T14:11:17.466Z,53.10
2018-02-15T14:13:45.869Z,52.90
2018-02-15T14:16:14.322Z,51.90
2018-02-15T14:18:43.133Z,50.00
2018-02-15T14:21:11.470Z,49.60
2018-02-15T14:23:43.246Z,49.20
2018-02-15T14:26:11.653Z,48.80
2018-02-15T14:28:39.979Z,48.50
2018-02-15T14:31:08.496Z,49.00
2018-02-15T14:33:36.858Z,48.10
2018-02-15T14:36:14.489Z,45.30
2018-02-15T14:39:02.812Z,46.50
2018-02-15T14:41:31.960Z,46.50
2018-02-15T14:44:01.609Z,51.00
2018-02-15T14:46:30.190Z,51.00
2018-02-15T14:49:04.607Z,48.60
2018-02-15T14:51:36.882Z,49.00
2018-02-15T14:54:05.275Z,48.40
2018-02-15T14:56:46.394Z,47.60
2018-02-15T14:59:15.918Z,47.60
2018-02-15T15:01:45.016Z,47.60
2018-02-15T15:04:13.475Z,47.40
2018-02-15T15:06:42.655Z,49.00
2018-02-15T15:09:20.005Z,49.00
2018-02-15T15:11:48.480Z,49.50
2018-02-15T15:14:16.862Z,48.90
2018-02-15T15:16:45.340Z,49.10
2018-02-15T15:19:27.203Z,49.80
2018-02-15T15:21:56.437Z,52.20
2018-02-15T15:24:24.918Z,52.20
2018-02-15T15:26:53.342Z,54.50
2018-02-15T15:29:27.920Z,59.10
2018-02-15T15:31:56.504Z,57.40
2018-02-15T15:34:24.938Z,57.50
2018-02-15T15:36:53.481Z,56.60
2018-02-15T15:39:21.950Z,58.50
2018-02-15T15:41:56.980Z,64.70
2018-02-15T15:44:25.768Z,68.90
2018-02-15T15:46:54.161Z,68.60
2018-02-15T15:49:23.537Z,65.30
2018-02-15T15:51:52.143Z,60.70
2018-02-15T15:54:20.524Z,59.50
2018-02-15T15:56:48.887Z,58.60
2018-02-15T15:59:24.648Z,60.10
2018-02-15T16:01:53.120Z,59.50
2018-02-15T16:04:21.437Z,61.30
2018-02-15T16:06:49.934Z,65.00
2018-02-15T16:09:24.425Z,69.90
2018-02-15T16:11:52.885Z,74.10
2018-02-15T16:14:21.183Z,78.30
2018-02-15T16:16:49.637Z,78.30
2018-02-15T16:19:18.036Z,77.10
2018-02-15T16:21:46.655Z,77.30
2018-02-15T16:24:15.185Z,75.90
2018-02-15T16:26:48.153Z,72.50
2018-02-15T16:29:16.531Z,72.40
2018-02-15T16:31:51.730Z,76.00
2018-02-15T16:34:27.144Z,85.00
2018-02-15T16:36:55.463Z,84.90
2018-02-15T16:39:23.992Z,89.00
2018-02-15T16:42:00.167Z,91.20
2018-02-15T16:44:30.050Z,91.60
2018-02-15T16:47:00.388Z,92.10
2018-02-15T16:49:28.885Z,91.90
2018-02-15T16:51:57.357Z,93.20
2018-02-15T16:54:25.832Z,93.90
2018-02-15T16:57:01.370Z,94.10
2018-02-15T16:59:30.061Z,94.80
2018-02-15T17:02:04.450Z,95.30
2018-02-15T17:04:33.681Z,95.70
2018-02-15T17:07:02.205Z,95.70
2018-02-15T17:09:32.379Z,95.80
2018-02-15T17:12:00.742Z,95.80
2018-02-15T17:14:29.158Z,96.80
2018-02-15T17:17:10.932Z,96.50
2018-02-15T17:19:42.605Z,96.70
2018-02-15T17:22:11.070Z,97.30
2018-02-15T17:24:39.449Z,97.30
2018-02-15T17:27:15.141Z,97.30
2018-02-15T17:29:43.606Z,97.50
2018-02-15T17:32:11.935Z,98.00
2018-02-15T17:34:40.458Z,98.40
2018-02-15T17:37:08.996Z,99.00
2018-02-15T17:39:37.442Z,98.60
2018-02-15T17:42:05.983Z,98.70
2018-02-15T17:44:34.388Z,99.10
2018-02-15T17:47:10.082Z,98.80
2018-02-15T17:49:38.492Z,98.70
2018-02-15T17:52:07.080Z,99.10
2018-02-15T17:54:35.967Z,99.30
2018-02-15T17:57:10.075Z,99.60
2018-02-15T17:59:38.486Z,99.50
2018-02-15T18:02:06.806Z,99.20
2018-02-15T18:04:35.979Z,98.70
2018-02-15T18:07:04.407Z,98.60
2018-02-15T18:09:32.740Z,98.60
2018-02-15T18:12:07.309Z,98.60
2018-02-15T18:14:35.717Z,98.50
2018-02-15T18:17:04.074Z,98.10
2018-02-15T18:19:32.444Z,98.00
2018-02-15T18:22:01.006Z,98.00
2018-02-15T18:24:36.701Z,97.90
2018-02-15T18:27:05.014Z,98.00
2018-02-15T18:29:33.592Z,97.60
2018-02-15T18:32:03.477Z,98.10
2018-02-15T18:34:31.960Z,97.70
2018-02-15T18:37:00.418Z,97.70
2018-02-15T18:39:28.997Z,98.10
2018-02-15T18:42:10.593Z,97.70
2018-02-15T18:44:38.982Z,97.70
2018-02-15T18:47:09.805Z,97.60
2018-02-15T18:49:38.935Z,97.60
2018-02-15T18:52:20.216Z,97.70
2018-02-15T18:54:53.298Z,97.60
2018-02-15T18:57:21.646Z,97.90
2018-02-15T18:59:50.121Z,97.90
2018-02-15T19:02:19.323Z,98.10
2018-02-15T19:04:48.026Z,97.90
2018-02-15T19:07:16.487Z,97.90
2018-02-15T19:09:44.888Z,97.80
2018-02-15T19:12:13.397Z,97.10
2018-02-15T19:14:41.898Z,96.20
2018-02-15T19:17:12.163Z,95.10
2018-02-15T19:19:42.193Z,95.00
2018-02-15T19:22:16.623Z,94.80
2018-02-15T19:24:45.915Z,94.50
2018-02-15T19:27:15.214Z,94.00
2018-02-15T19:29:43.708Z,93.40
2018-02-15T19:32:14.129Z,92.80
2018-02-15T19:34:42.472Z,92.60
2018-02-15T19:37:10.863Z,92.50
2018-02-15T19:39:39.332Z,92.30
2018-02-15T19:42:07.815Z,92.50
2018-02-15T19:44:36.946Z,92.10
2018-02-15T19:47:05.480Z,91.90
2018-02-15T19:49:40.975Z,91.80
2018-02-15T19:52:09.369Z,91.30
2018-02-15T19:54:37.858Z,91.40
2018-02-15T19:57:19.576Z,91.40
2018-02-15T19:59:48.100Z,90.90
2018-02-15T20:02:16.666Z,90.60
2018-02-15T20:04:45.142Z,90.50
2018-02-15T20:07:16.051Z,90.30
2018-02-15T20:09:51.849Z,90.10
2018-02-15T20:12:20.249Z,90.20
2018-02-15T20:14:50.421Z,90.10
2018-02-15T20:17:18.766Z,90.10
2018-02-15T20:19:53.515Z,90.10
2018-02-15T20:22:22.017Z,90.30
2018-02-15T20:24:51.380Z,90.20
2018-02-15T20:30:31.293Z,90.00
2018-02-15T20:33:07.138Z,90.00
2018-02-15T20:35:35.628Z,90.10
2018-02-15T20:38:16.705Z,90.00
2018-02-15T20:40:45.232Z,89.50
2018-02-15T20:43:20.193Z,89.70
2018-02-15T20:45:48.712Z,89.40
2018-02-15T20:48:17.526Z,88.90
2018-02-15T20:50:51.802Z,87.40
2018-02-15T20:53:26.174Z,87.00
2018-02-15T20:55:56.151Z,86.90
2018-02-15T20:58:25.644Z,86.70
2018-02-15T21:00:55.861Z,86.60
2018-02-15T21:03:24.273Z,86.40
2018-02-15T21:05:52.819Z,86.00
2018-02-15T21:08:21.407Z,85.70
2018-02-15T21:10:50.306Z,85.10
2018-02-15T21:13:18.671Z,85.00
2018-02-15T21:15:47.038Z,84.70
2018-02-15T21:18:18.820Z,84.70
2018-02-15T21:20:52.327Z,84.40
2018-02-15T21:23:21.095Z,84.60
2018-02-15T21:25:57.550Z,84.10
2018-02-15T21:28:35.240Z,84.10
2018-02-15T21:31:03.591Z,84.00
2018-02-15T21:33:32.832Z,86.10
2018-02-15T21:36:02.137Z,85.90
2018-02-15T21:38:35.614Z,86.20
2018-02-15T21:41:04.057Z,86.70
2018-02-15T21:43:33.344Z,87.40
2018-02-15T21:46:02.217Z,87.30
2018-02-15T21:48:37.938Z,87.80
2018-02-15T21:51:13.599Z,88.80
2018-02-15T21:53:41.943Z,89.00
2018-02-15T21:56:11.081Z,90.00
2018-02-15T21:58:43.156Z,90.30
2018-02-15T22:01:13.869Z,90.10
2018-02-15T22:03:42.768Z,90.10
2018-02-15T22:06:12.987Z,90.10
2018-02-15T22:08:42.691Z,90.20
2018-02-15T22:11:18.089Z,90.00
2018-02-15T22:13:47.440Z,89.60
2018-02-15T22:16:15.921Z,89.60
2018-02-15T22:18:48.822Z,89.50
2018-02-15T22:21:17.497Z,89.50
2018-02-15T22:23:52.030Z,89.10
2018-02-15T22:26:20.604Z,89.00
2018-02-15T22:28:49.100Z,89.20
2018-02-15T22:31:20.473Z,88.70
2018-02-15T22:33:49.052Z,88.60
2018-02-15T22:36:18.218Z,88.30
2018-02-15T22:38:47.415Z,88.20
2018-02-15T22:41:16.097Z,88.30
2018-02-15T22:43:52.042Z,88.20
2018-02-15T22:46:20.675Z,88.10
2018-02-15T22:48:50.646Z,88.20
2018-02-15T22:51:20.978Z,88.20
2018-02-15T22:53:49.979Z,87.60
2018-02-15T22:56:20.609Z,87.60
2018-02-15T22:58:50.098Z,87.20
2018-02-15T23:01:18.605Z,87.20
2018-02-15T23:03:47.162Z,86.70
2018-02-15T23:06:15.577Z,86.10
2018-02-15T23:08:44.095Z,85.60
2018-02-15T23:11:13.186Z,85.40
2018-02-15T23:13:42.469Z,85.30
2018-02-15T23:16:24.748Z,85.30
2018-02-15T23:18:54.436Z,84.10
2018-02-15T23:21:23.180Z,82.70
2018-02-15T23:23:52.537Z,82.90
2018-02-15T23:26:21.203Z,82.90
2018-02-15T23:28:49.787Z,83.60
2018-02-15T23:31:18.415Z,83.70
2018-02-15T23:33:46.724Z,83.80
2018-02-15T23:36:16.017Z,84.20
2018-02-15T23:38:45.246Z,84.10
2018-02-15T23:41:29.399Z,83.30
2018-02-15T23:43:57.912Z,82.70
2018-02-15T23:46:26.749Z,82.50
2018-02-15T23:48:57.715Z,81.90
2018-02-15T23:51:26.601Z,82.00
2018-02-15T23:53:55.079Z,82.10
2018-02-15T23:56:24.501Z,82.40
2018-02-15T23:58:53.168Z,80.80
